Time;durP1;ratioP1;P1;durP2;ratioP2;P2;SDS_P1;SDS_P2;PMS_P1;PMS_P2;Temp;Humidity;BMP_temperature;BMP_pressure;BME280_temperature;BME280_humidity;BME280_pressure;Samples;Min_cycle;Max_cycle;Signal;HPM_P1;HPM_P2
2023/03/31 00:02:12;;;;;;;10.48;3.00;;;;;;;9.22;95.61;100355.53;6187968;23;20458;-75
2023/03/31 00:04:51;;;;;;;12.70;3.08;;;;;;;9.22;95.94;100352.88;6187620;23;20359;-76
2023/03/31 00:07:22;;;;;;;10.63;2.50;;;;;;;9.21;96.23;100342.69;6188270;23;20406;-76
2023/03/31 00:09:53;;;;;;;8.77;2.60;;;;;;;9.21;96.65;100329.41;6188054;23;20020;-76
2023/03/31 00:12:32;;;;;;;7.28;2.35;;;;;;;9.20;97.07;100327.94;6160868;23;20435;-76
2023/03/31 00:14:59;;;;;;;12.43;2.78;;;;;;;9.20;97.33;100333.22;6187753;23;20014;-76
2023/03/31 00:17:25;;;;;;;8.73;2.97;;;;;;;9.20;97.80;100315.38;6189674;23;20022;-76
2023/03/31 00:19:52;;;;;;;11.82;3.08;;;;;;;9.21;98.13;100318.78;6187817;23;20020;-76
2023/03/31 00:22:21;;;;;;;10.10;4.03;;;;;;;9.21;98.48;100314.22;6187787;23;20022;-76
2023/03/31 00:24:48;;;;;;;10.38;2.42;;;;;;;9.21;98.73;100300.19;6187553;23;20045;-75
2023/03/31 00:27:14;;;;;;;7.78;2.35;;;;;;;9.21;98.92;100306.25;6187252;23;20013;-75
2023/03/31 00:29:42;;;;;;;7.72;2.60;;;;;;;9.22;98.56;100293.69;6187490;23;20014;-75
2023/03/31 00:32:09;;;;;;;6.13;2.70;;;;;;;9.21;99.50;100287.66;6161371;23;20057;-75
2023/03/31 00:34:36;;;;;;;10.05;2.60;;;;;;;9.21;99.27;100285.00;6161238;23;20053;-75
2023/03/31 00:37:03;;;;;;;7.30;2.55;;;;;;;9.22;99.34;100280.41;6187608;23;20017;-76
2023/03/31 00:39:34;;;;;;;13.27;2.78;;;;;;;9.23;99.52;100271.28;6188169;23;20017;-76
2023/03/31 00:42:02;;;;;;;7.53;2.30;;;;;;;9.25;99.79;100274.22;6188387;23;20022;-76
2023/03/31 00:44:32;;;;;;;11.52;2.85;;;;;;;9.26;99.84;100263.16;6189368;23;20018;-76
2023/03/31 00:47:19;;;;;;;9.95;2.20;;;;;;;9.27;99.32;100261.97;6162537;23;20489;-76
2023/03/31 00:49:50;;;;;;;11.13;2.35;;;;;;;9.30;99.44;100253.13;6189333;23;20020;-75
2023/03/31 00:52:31;;;;;;;6.28;2.33;;;;;;;9.31;99.42;100244.00;6188914;23;20081;-75
2023/03/31 00:55:03;;;;;;;5.07;2.40;;;;;;;9.34;99.65;100243.09;6162531;23;20039;-76
2023/03/31 00:57:36;;;;;;;8.65;2.58;;;;;;;9.36;99.78;100240.00;6188545;23;20455;-75
2023/03/31 01:00:16;;;;;;;5.53;1.90;;;;;;;9.36;100.00;100227.47;6188893;23;20018;-75
2023/03/31 01:02:56;;;;;;;13.40;2.78;;;;;;;9.39;99.76;100231.16;6188998;23;20018;-76
2023/03/31 01:05:38;;;;;;;11.95;2.30;;;;;;;9.42;99.62;100227.63;6162513;23;20018;-76
2023/03/31 01:08:05;;;;;;;8.85;2.70;;;;;;;9.45;99.92;100223.34;6190082;23;20013;-76
2023/03/31 01:10:40;;;;;;;4.72;2.00;;;;;;;9.47;99.95;100211.09;6188206;23;20014;-75
2023/03/31 01:13:09;;;;;;;9.30;2.28;;;;;;;9.49;100.00;100211.38;6189226;23;20022;-75
2023/03/31 01:15:37;;;;;;;5.85;2.28;;;;;;;9.51;100.00;100202.97;6188557;23;20017;-76
2023/03/31 01:18:09;;;;;;;10.73;2.13;;;;;;;9.54;100.00;100192.19;6188248;23;20025;-77
2023/03/31 01:20:39;;;;;;;5.32;2.42;;;;;;;9.53;100.00;100182.00;6188517;23;20443;-77
2023/03/31 01:23:27;;;;;;;13.02;2.70;;;;;;;9.50;100.00;100177.59;6191506;23;20022;-75
2023/03/31 01:26:19;;;;;;;7.22;2.50;;;;;;;9.50;100.00;100173.00;6187847;23;20477;-75
2023/03/31 01:29:02;;;;;;;5.70;2.42;;;;;;;9.48;100.00;100178.03;6162566;23;20017;-75
2023/03/31 01:31:35;;;;;;;7.90;2.17;;;;;;;9.49;100.00;100162.81;6189189;23;20072;-75
2023/03/31 01:34:33;;;;;;;6.90;2.22;;;;;;;9.48;100.00;100158.69;6188858;23;20052;-75
2023/03/31 01:37:13;;;;;;;5.00;2.45;;;;;;;9.49;100.00;100150.28;6188833;23;20025;-76
2023/03/31 01:40:21;;;;;;;9.13;2.17;;;;;;;9.49;100.00;100149.53;6163156;23;20025;-76
2023/03/31 01:42:51;;;;;;;6.25;2.10;;;;;;;9.47;100.00;100130.66;6040131;23;20024;-76
2023/03/31 01:45:21;;;;;;;6.50;2.65;;;;;;;9.45;100.00;100127.69;6039098;23;20028;-77
2023/03/31 01:48:03;;;;;;;6.90;2.17;;;;;;;9.45;100.00;100125.03;6039799;23;20024;-77
2023/03/31 01:50:35;;;;;;;11.32;2.70;;;;;;;9.43;100.00;100122.81;6038676;23;20024;-76
2023/03/31 01:53:15;;;;;;;6.95;2.42;;;;;;;9.44;100.00;100118.25;6039807;23;20044;-75
2023/03/31 01:55:48;;;;;;;3.58;2.50;;;;;;;9.43;100.00;100104.22;6039360;23;20020;-75
2023/03/31 01:58:19;;;;;;;7.72;2.53;;;;;;;9.43;100.00;100100.84;6015643;23;20031;-77
2023/03/31 02:01:00;;;;;;;10.38;2.63;;;;;;;9.44;100.00;100104.97;6015814;23;20026;-76
2023/03/31 02:03:32;;;;;;;5.97;2.78;;;;;;;9.43;100.00;100096.25;6039726;23;20020;-76
2023/03/31 02:06:07;;;;;;;6.40;2.70;;;;;;;9.44;100.00;100097.00;6039518;23;20035;-75
2023/03/31 02:08:40;;;;;;;9.45;3.05;;;;;;;9.45;100.00;100087.84;6015338;23;20104;-75
2023/03/31 02:11:07;;;;;;;9.38;2.63;;;;;;;9.43;100.00;100075.00;6040538;23;20481;-76
2023/03/31 02:13:37;;;;;;;13.18;3.85;;;;;;;9.45;100.00;100077.94;6015975;23;20504;-76
2023/03/31 02:16:08;;;;;;;7.45;3.03;;;;;;;9.46;100.00;100074.13;6055715;23;20029;-76
2023/03/31 02:18:37;;;;;;;10.38;3.20;;;;;;;9.47;100.00;100064.97;6128337;23;20029;-76
2023/03/31 02:21:07;;;;;;;5.45;2.20;;;;;;;9.48;100.00;100053.16;6127643;23;20053;-76
2023/03/31 02:23:37;;;;;;;9.18;2.50;;;;;;;9.50;100.00;100055.38;6129148;23;20019;-75
2023/03/31 02:26:12;;;;;;;4.68;3.05;;;;;;;9.50;100.00;100044.72;6129285;23;20091;-76
2023/03/31 02:28:39;;;;;;;8.57;2.83;;;;;;;9.51;100.00;100036.31;6128458;23;20042;-75
2023/03/31 02:31:24;;;;;;;9.13;2.53;;;;;;;9.53;100.00;100033.94;6127516;23;20018;-75
2023/03/31 02:33:52;;;;;;;13.48;3.15;;;;;;;9.53;100.00;100017.28;6129152;23;20018;-76
2023/03/31 02:36:20;;;;;;;9.23;3.00;;;;;;;9.55;100.00;100014.91;6128979;23;20022;-76
2023/03/31 02:38:52;;;;;;;7.32;2.42;;;;;;;9.56;100.00;100009.13;6128725;23;20015;-76
2023/03/31 02:41:19;;;;;;;7.80;2.45;;;;;;;9.57;100.00;100007.97;6127498;23;20019;-76
2023/03/31 02:43:45;;;;;;;9.48;2.65;;;;;;;9.59;100.00;100002.94;6127853;23;20372;-76
2023/03/31 02:46:12;;;;;;;11.35;2.80;;;;;;;9.60;100.00;99991.09;6127235;23;20491;-76
2023/03/31 02:48:44;;;;;;;4.50;2.17;;;;;;;9.60;100.00;99990.34;6127566;23;20026;-75
2023/03/31 02:51:32;;;;;;;13.02;2.75;;;;;;;9.62;100.00;99977.34;6127520;23;20023;-76
2023/03/31 02:54:23;;;;;;;7.32;2.92;;;;;;;9.61;100.00;99973.97;6151788;23;20018;-76
2023/03/31 02:57:15;;;;;;;5.85;2.38;;;;;;;9.62;100.00;99966.72;6121330;23;20034;-75
2023/03/31 02:59:44;;;;;;;10.95;2.90;;;;;;;9.61;100.00;99960.66;6131799;23;20444;-75
2023/03/31 03:02:36;;;;;;;13.15;2.80;;;;;;;9.60;100.00;99948.56;6126670;23;20018;-76
2023/03/31 03:05:18;;;;;;;9.95;2.67;;;;;;;9.59;100.00;99947.13;6127536;23;20022;-75
2023/03/31 03:08:54;;;;;;;7.32;2.60;;;;;;;9.57;100.00;99933.56;6126162;23;20086;-75
2023/03/31 03:11:50;;;;;;;8.02;2.40;;;;;;;9.57;100.00;99919.53;6007450;23;20031;-76
2023/03/31 03:14:37;;;;;;;5.35;2.40;;;;;;;9.55;100.00;99917.31;6015588;23;20044;-76
2023/03/31 03:17:11;;;;;;;6.63;2.00;;;;;;;9.54;100.00;99909.81;6015726;23;20100;-75
2023/03/31 03:19:39;;;;;;;5.22;2.17;;;;;;;9.53;100.00;99909.06;6039327;23;20168;-76
2023/03/31 03:22:06;;;;;;;8.25;2.40;;;;;;;9.52;100.00;99893.59;6038638;23;20023;-76
2023/03/31 03:24:34;;;;;;;7.43;1.83;;;;;;;9.51;100.00;99897.44;6039675;23;20027;-76
2023/03/31 03:27:01;;;;;;;7.85;1.98;;;;;;;9.50;100.00;99891.38;6038874;23;20094;-75
2023/03/31 03:29:27;;;;;;;5.03;1.67;;;;;;;9.49;100.00;99889.91;6039220;23;20027;-76
2023/03/31 03:31:54;;;;;;;6.15;1.90;;;;;;;9.48;100.00;99885.78;6039568;23;20028;-76
2023/03/31 03:34:20;;;;;;;5.63;1.90;;;;;;;9.48;100.00;99885.03;6038894;23;20023;-76
2023/03/31 03:36:47;;;;;;;8.68;1.83;;;;;;;9.46;100.00;99872.22;6038203;23;20100;-76
2023/03/31 03:39:13;;;;;;;3.72;1.73;;;;;;;9.46;100.00;99874.13;6039026;23;20028;-76
2023/03/31 03:41:40;;;;;;;5.90;1.90;;;;;;;9.43;100.00;99867.78;6038093;23;20032;-76
2023/03/31 03:44:06;;;;;;;5.60;1.88;;;;;;;9.44;100.00;99853.31;6015359;23;20072;-76
2023/03/31 03:46:33;;;;;;;5.93;1.67;;;;;;;9.43;100.00;99845.81;6068077;23;20057;-76
2023/03/31 03:48:59;;;;;;;7.47;2.10;;;;;;;9.43;100.00;99838.56;6128641;23;20022;-76
2023/03/31 03:51:26;;;;;;;6.18;2.05;;;;;;;9.43;100.00;99835.19;6128118;23;20086;-76
2023/03/31 03:53:52;;;;;;;10.07;1.95;;;;;;;9.41;100.00;99832.25;6128607;23;20021;-76
2023/03/31 03:56:20;;;;;;;6.85;1.90;;;;;;;9.41;100.00;99832.97;6128509;23;20070;-76
2023/03/31 03:58:47;;;;;;;7.25;1.92;;;;;;;9.41;100.00;99819.69;6129383;23;20046;-76
2023/03/31 04:01:15;;;;;;;10.80;2.50;;;;;;;9.39;100.00;99814.09;6128645;23;20412;-75
2023/03/31 04:03:41;;;;;;;7.53;1.90;;;;;;;9.36;100.00;99818.41;6133236;23;20018;-77
2023/03/31 04:06:08;;;;;;;6.93;1.98;;;;;;;9.35;100.00;99813.53;6128426;23;20122;-79
2023/03/31 04:08:35;;;;;;;7.15;1.83;;;;;;;9.33;100.00;99805.28;6103264;23;20539;-76
2023/03/31 04:11:02;;;;;;;8.68;1.55;;;;;;;9.32;100.00;99812.50;6128788;23;20721;-77
2023/03/31 04:13:29;;;;;;;1.95;1.20;;;;;;;9.29;100.00;99794.81;6128728;23;20025;-76
2023/03/31 04:15:55;;;;;;;4.53;1.70;;;;;;;9.26;100.00;99789.69;6129778;23;20015;-76
2023/03/31 04:18:22;;;;;;;3.80;1.40;;;;;;;9.24;100.00;99781.44;6129414;23;20029;-76
2023/03/31 04:21:04;;;;;;;4.63;1.08;;;;;;;9.22;100.00;99768.59;6130299;23;20882;-77
2023/03/31 04:23:33;;;;;;;6.00;1.42;;;;;;;9.22;100.00;99762.56;6128680;23;20018;-77
2023/03/31 04:26:01;;;;;;;4.15;1.35;;;;;;;9.21;100.00;99751.19;6129829;23;20050;-76
2023/03/31 04:28:33;;;;;;;4.25;1.40;;;;;;;9.21;100.00;99743.25;6130146;23;20025;-77
2023/03/31 04:31:01;;;;;;;2.10;1.20;;;;;;;9.21;100.00;99734.53;6129743;23;20586;-77
2023/03/31 04:33:28;;;;;;;3.83;1.45;;;;;;;9.20;100.00;99723.19;6129663;23;20363;-76
2023/03/31 04:35:54;;;;;;;7.45;1.33;;;;;;;9.20;100.00;99717.13;6131501;23;20019;-75
2023/03/31 04:38:23;;;;;;;8.68;1.50;;;;;;;9.20;100.00;99706.50;6129878;23;20019;-76
2023/03/31 04:40:51;;;;;;;9.07;1.63;;;;;;;9.19;100.00;99700.50;6137230;23;20065;-76
2023/03/31 04:43:19;;;;;;;4.75;1.50;;;;;;;9.20;100.00;99698.53;6189657;23;20026;-76
2023/03/31 04:45:46;;;;;;;3.42;1.70;;;;;;;9.20;100.00;99691.31;6189322;23;20077;-76
2023/03/31 04:48:12;;;;;;;4.55;1.75;;;;;;;9.20;100.00;99693.25;6188834;23;20084;-76
2023/03/31 04:50:39;;;;;;;6.88;2.20;;;;;;;9.20;100.00;99685.28;6189357;23;20014;-76
2023/03/31 04:53:06;;;;;;;3.72;1.70;;;;;;;9.20;100.00;99678.03;6189635;23;20439;-76
2023/03/31 04:55:32;;;;;;;4.78;2.10;;;;;;;9.20;100.00;99664.75;6189603;23;20016;-76
2023/03/31 04:57:59;;;;;;;5.40;2.13;;;;;;;9.23;100.00;99665.78;6189336;23;20047;-76
2023/03/31 05:00:25;;;;;;;7.10;2.58;;;;;;;9.25;100.00;99666.06;6189376;23;20020;-77
2023/03/31 05:02:52;;;;;;;6.72;2.35;;;;;;;9.26;100.00;99657.63;6188937;23;20021;-76
2023/03/31 05:05:20;;;;;;;7.97;2.25;;;;;;;9.27;100.00;99651.13;6189211;23;20060;-76
2023/03/31 05:07:46;;;;;;;9.75;2.50;;;;;;;9.27;100.00;99647.75;6189397;23;20439;-76
2023/03/31 05:10:13;;;;;;;5.63;2.30;;;;;;;9.26;100.00;99638.31;6189349;23;20214;-77
2023/03/31 05:12:39;;;;;;;5.95;2.60;;;;;;;9.26;100.00;99633.00;6189615;23;20013;-77
2023/03/31 05:15:07;;;;;;;7.28;2.75;;;;;;;9.26;100.00;99622.38;6189708;23;20020;-77
2023/03/31 05:17:35;;;;;;;3.55;2.03;;;;;;;9.26;100.00;99625.03;6188994;23;20024;-77
2023/03/31 05:20:05;;;;;;;7.10;2.28;;;;;;;9.26;100.00;99620.47;6189181;23;20036;-77
2023/03/31 05:22:37;;;;;;;9.20;2.42;;;;;;;9.27;100.00;99611.31;6163219;23;20086;-77
2023/03/31 05:25:06;;;;;;;5.60;2.13;;;;;;;9.29;100.00;99608.19;6189865;23;20024;-76
2023/03/31 05:27:36;;;;;;;5.75;2.30;;;;;;;9.27;100.00;99603.34;6188668;23;20026;-78
2023/03/31 05:30:03;;;;;;;8.25;2.40;;;;;;;9.29;100.00;99606.25;6188878;23;20018;-77
2023/03/31 05:32:30;;;;;;;4.60;2.05;;;;;;;9.31;100.00;99600.50;6188413;23;20013;-77
2023/03/31 05:34:56;;;;;;;4.75;1.83;;;;;;;9.31;100.00;99592.53;6188877;23;20029;-77
2023/03/31 05:37:24;;;;;;;12.18;2.60;;;;;;;9.31;100.00;99589.88;6188981;23;20025;-77
2023/03/31 05:39:51;;;;;;;7.93;2.28;;;;;;;9.31;100.00;99595.19;6162198;23;20418;-77
2023/03/31 05:42:18;;;;;;;4.18;2.13;;;;;;;9.33;100.00;99584.84;6163148;23;20018;-77
2023/03/31 05:44:45;;;;;;;8.15;2.03;;;;;;;9.33;100.00;99587.50;6189807;23;20503;-77
2023/03/31 05:47:12;;;;;;;6.32;2.25;;;;;;;9.32;100.00;99570.81;6136742;23;20482;-77
2023/03/31 05:49:39;;;;;;;7.00;1.90;;;;;;;9.32;100.00;99576.13;6189062;23;20418;-77
2023/03/31 05:52:07;;;;;;;4.35;1.60;;;;;;;9.33;100.00;99566.25;6189310;23;20073;-77
2023/03/31 05:54:34;;;;;;;4.70;1.90;;;;;;;9.34;100.00;99568.44;6189421;23;20510;-77
2023/03/31 05:57:00;;;;;;;4.20;1.55;;;;;;;9.34;100.00;99563.13;6188743;23;20442;-77
2023/03/31 05:59:27;;;;;;;4.30;1.88;;;;;;;9.33;100.00;99561.66;6191125;23;20478;-77
2023/03/31 06:01:53;;;;;;;7.25;1.73;;;;;;;9.35;100.00;99556.63;6188399;23;20064;-76
2023/03/31 06:04:20;;;;;;;5.10;1.75;;;;;;;9.35;100.00;99551.31;6189100;23;20466;-77
2023/03/31 06:06:49;;;;;;;3.47;1.50;;;;;;;9.38;100.00;99551.59;6162058;23;20064;-76
2023/03/31 06:09:16;;;;;;;6.45;1.90;;;;;;;9.38;100.00;99547.00;6188924;23;20068;-76
2023/03/31 06:11:43;;;;;;;3.25;1.65;;;;;;;9.39;100.00;99548.47;6188717;23;20040;-76
2023/03/31 06:14:09;;;;;;;4.47;1.75;;;;;;;9.39;100.00;99540.50;6188821;23;20025;-76
2023/03/31 06:16:36;;;;;;;3.10;1.60;;;;;;;9.41;100.00;99542.72;6188473;23;20021;-76
2023/03/31 06:19:02;;;;;;;5.72;1.70;;;;;;;9.41;100.00;99534.75;6188497;23;20013;-77
2023/03/31 06:21:29;;;;;;;6.28;1.50;;;;;;;9.42;100.00;99536.94;6188693;23;20117;-76
2023/03/31 06:23:57;;;;;;;5.50;1.98;;;;;;;9.43;100.00;99527.06;6188789;23;20018;-76
2023/03/31 06:26:23;;;;;;;5.95;1.52;;;;;;;9.46;100.00;99529.53;6188767;23;20510;-77
2023/03/31 06:28:50;;;;;;;3.05;1.60;;;;;;;9.47;100.00;99528.31;6189161;23;20018;-76
2023/03/31 06:31:19;;;;;;;5.15;1.70;;;;;;;9.49;100.00;99525.22;6189056;23;20018;-76
2023/03/31 06:33:46;;;;;;;3.58;1.52;;;;;;;9.52;100.00;99526.94;6188762;23;20093;-77
2023/03/31 06:36:15;;;;;;;5.93;1.45;;;;;;;9.55;100.00;99520.72;6188671;23;20432;-77
2023/03/31 06:38:42;;;;;;;5.75;1.45;;;;;;;9.61;100.00;99516.94;6188640;23;20013;-76
2023/03/31 06:41:11;;;;;;;2.55;1.23;;;;;;;9.66;100.00;99515.53;6188052;23;20415;-77
2023/03/31 06:43:38;;;;;;;4.15;1.38;;;;;;;9.69;100.00;99517.28;6188495;23;20021;-77
2023/03/31 06:46:05;;;;;;;5.03;1.38;;;;;;;9.68;100.00;99516.53;6189091;23;20029;-75
2023/03/31 06:48:32;;;;;;;4.50;1.48;;;;;;;9.70;100.00;99508.84;6189451;23;20045;-77
2023/03/31 06:51:01;;;;;;;1.90;0.93;;;;;;;9.70;100.00;99508.84;6189702;23;20017;-77
2023/03/31 06:53:28;;;;;;;1.30;1.15;;;;;;;9.73;100.00;99503.81;6189341;23;20018;-77
2023/03/31 06:55:55;;;;;;;5.18;1.13;;;;;;;9.75;100.00;99504.06;6189584;23;20025;-77
2023/03/31 06:58:21;;;;;;;2.13;1.02;;;;;;;9.75;100.00;99509.38;6188830;23;20014;-76
2023/03/31 07:00:48;;;;;;;4.45;1.30;;;;;;;9.77;100.00;99507.72;6189973;23;20022;-77
2023/03/31 07:03:21;;;;;;;3.88;0.93;;;;;;;9.75;100.00;99501.41;6190278;23;20013;-77
2023/03/31 07:05:49;;;;;;;6.10;1.30;;;;;;;9.77;100.00;99504.34;6190099;23;20041;-77
2023/03/31 07:08:17;;;;;;;5.57;1.40;;;;;;;9.80;100.00;99498.09;6189557;23;20324;-78
2023/03/31 07:10:47;;;;;;;6.35;1.25;;;;;;;9.83;100.00;99500.56;6163447;23;20017;-77
2023/03/31 07:13:15;;;;;;;2.42;1.00;;;;;;;9.86;100.00;99496.25;6162293;23;20013;-77
2023/03/31 07:15:43;;;;;;;3.67;1.20;;;;;;;9.85;100.00;99492.88;6190121;23;20029;-77
2023/03/31 07:18:09;;;;;;;2.15;0.98;;;;;;;9.87;100.00;99495.78;6190026;23;20017;-76
2023/03/31 07:20:36;;;;;;;2.85;1.30;;;;;;;9.89;100.00;99500.66;6190212;23;20406;-78
2023/03/31 07:23:04;;;;;;;2.75;0.85;;;;;;;9.88;100.00;99505.22;6189486;23;20017;-77
2023/03/31 07:25:31;;;;;;;4.03;1.23;;;;;;;9.88;100.00;99497.25;6189058;23;20076;-78
2023/03/31 07:27:57;;;;;;;4.90;1.35;;;;;;;9.89;100.00;99493.41;6188701;23;20018;-77
2023/03/31 07:30:25;;;;;;;3.08;1.00;;;;;;;9.89;100.00;99495.31;6189285;23;20024;-80
2023/03/31 07:32:53;;;;;;;2.50;0.95;;;;;;;9.89;100.00;99490.75;6189317;23;20014;-77
2023/03/31 07:35:21;;;;;;;1.90;1.00;;;;;;;9.89;100.00;99485.44;6189960;23;20021;-76
2023/03/31 07:37:49;;;;;;;2.95;0.90;;;;;;;9.86;100.00;99489.00;6189135;23;20089;-77
2023/03/31 07:40:22;;;;;;;3.80;0.93;;;;;;;9.90;100.00;99484.22;6188791;23;20041;-77
2023/03/31 07:42:50;;;;;;;2.80;1.10;;;;;;;9.92;100.00;99481.84;6188584;23;20475;-76
2023/03/31 07:45:19;;;;;;;1.70;0.93;;;;;;;9.93;100.00;99479.91;6189041;23;20028;-76
2023/03/31 07:47:47;;;;;;;3.05;0.88;;;;;;;9.93;100.00;99472.66;6189566;23;20029;-76
2023/03/31 07:50:14;;;;;;;3.83;1.00;;;;;;;9.95;100.00;99477.53;6190481;23;20017;-76
2023/03/31 07:52:41;;;;;;;2.80;1.00;;;;;;;9.99;100.00;99475.41;6190367;23;20487;-77
2023/03/31 07:55:11;;;;;;;6.65;1.75;;;;;;;10.03;100.00;99460.69;6190037;23;20025;-77
2023/03/31 07:57:38;;;;;;;4.82;1.00;;;;;;;10.06;100.00;99474.97;6190033;23;20014;-76
2023/03/31 08:00:08;;;;;;;4.35;1.05;;;;;;;10.03;100.00;99463.34;6190762;23;20013;-80
2023/03/31 08:02:38;;;;;;;5.10;1.27;;;;;;;10.03;100.00;99471.31;6190501;23;20029;-77
2023/03/31 08:05:06;;;;;;;4.50;1.10;;;;;;;10.00;100.00;99468.88;6190047;23;20025;-77
2023/03/31 08:07:37;;;;;;;3.63;1.15;;;;;;;9.99;100.00;99462.09;6189998;23;20459;-77
2023/03/31 08:10:06;;;;;;;2.08;1.00;;;;;;;10.04;100.00;99456.84;6190202;23;20022;-77
2023/03/31 08:12:33;;;;;;;2.25;1.10;;;;;;;10.04;100.00;99456.09;6189394;23;20409;-76
2023/03/31 08:15:00;;;;;;;3.95;1.23;;;;;;;10.06;100.00;99451.06;6190646;23;20021;-77
2023/03/31 08:17:26;;;;;;;2.65;1.23;;;;;;;10.10;100.00;99443.59;6189966;23;20811;-77
2023/03/31 08:19:53;;;;;;;2.15;1.10;;;;;;;10.19;100.00;99450.72;6190298;23;20041;-77
2023/03/31 08:22:22;;;;;;;2.97;1.38;;;;;;;10.26;100.00;99443.09;6190281;23;20021;-76
2023/03/31 08:24:48;;;;;;;3.30;1.58;;;;;;;10.37;100.00;99439.09;6164060;23;20440;-75
2023/03/31 08:27:15;;;;;;;2.33;1.20;;;;;;;10.46;100.00;99446.91;6189193;23;20053;-76
2023/03/31 08:29:42;;;;;;;5.57;1.20;;;;;;;10.48;100.00;99439.19;6190586;23;20017;-75
2023/03/31 08:32:08;;;;;;;1.92;1.38;;;;;;;10.44;100.00;99433.34;6189852;23;20022;-76
2023/03/31 08:34:36;;;;;;;4.68;1.23;;;;;;;10.39;100.00;99442.75;6190574;23;20056;-76
2023/03/31 08:37:03;;;;;;;7.40;1.42;;;;;;;10.39;100.00;99426.06;6190398;23;20482;-76
2023/03/31 08:39:31;;;;;;;3.67;1.23;;;;;;;10.38;100.00;99425.31;6189636;23;20469;-77
2023/03/31 08:42:07;;;;;;;3.63;1.63;;;;;;;10.42;100.00;99433.06;6190068;23;20448;-75
2023/03/31 08:44:57;;;;;;;4.95;1.75;;;;;;;10.45;100.00;99429.47;6165244;23;20045;-77
2023/03/31 08:47:28;;;;;;;2.88;1.48;;;;;;;10.51;100.00;99425.69;6189854;23;20057;-77
2023/03/31 08:50:02;;;;;;;5.03;1.70;;;;;;;10.57;100.00;99418.47;6163773;23;20084;-78
2023/03/31 08:52:35;;;;;;;2.50;1.90;;;;;;;10.62;100.00;99417.06;6190372;23;20581;-77
2023/03/31 08:55:09;;;;;;;6.25;1.98;;;;;;;10.70;100.00;99412.78;6190082;23;20076;-77
2023/03/31 08:58:17;;;;;;;4.63;1.95;;;;;;;10.72;100.00;99421.03;6191919;23;20014;-80
2023/03/31 09:01:00;;;;;;;5.88;2.03;;;;;;;10.80;100.00;99414.06;6069294;23;20023;-80
2023/03/31 09:03:56;;;;;;;6.85;2.30;;;;;;;10.89;100.00;99402.50;6069311;23;20469;-77
2023/03/31 09:06:40;;;;;;;9.73;2.83;;;;;;;10.93;100.00;99409.09;6069275;23;20024;-78
2023/03/31 09:09:13;;;;;;;6.70;2.47;;;;;;;10.94;100.00;99407.16;6069240;23;20043;-78
2023/03/31 09:11:50;;;;;;;9.05;3.03;;;;;;;10.93;100.00;99406.41;6069848;23;20469;-77
2023/03/31 09:14:24;;;;;;;9.00;2.70;;;;;;;11.03;100.00;99399.72;6069394;23;20024;-78
2023/03/31 09:17:02;;;;;;;8.10;3.13;;;;;;;11.08;100.00;99405.56;6069824;23;20024;-78
2023/03/31 09:19:42;;;;;;;9.50;3.83;;;;;;;11.05;100.00;99395.84;6069102;23;20031;-78
2023/03/31 09:22:17;;;;;;;12.23;2.85;;;;;;;11.11;100.00;99393.97;6069167;23;20019;-77
2023/03/31 09:24:50;;;;;;;10.65;2.92;;;;;;;11.22;100.00;99389.41;6069067;23;20019;-78
2023/03/31 09:27:19;;;;;;;8.73;2.90;;;;;;;11.29;100.00;99386.31;6069184;23;20027;-78
2023/03/31 09:29:51;;;;;;;12.75;2.78;;;;;;;11.35;100.00;99379.06;6069854;23;20027;-78
2023/03/31 09:32:28;;;;;;;10.18;2.83;;;;;;;11.42;100.00;99379.84;6044921;23;20130;-78
2023/03/31 09:35:01;;;;;;;6.60;2.58;;;;;;;11.54;100.00;99374.09;6069207;23;20053;-77
2023/03/31 09:37:32;;;;;;;9.23;2.78;;;;;;;11.60;100.00;99374.09;6111211;23;20250;-78
2023/03/31 09:40:00;;;;;;;12.30;3.60;;;;;;;11.66;100.00;99380.19;6190317;23;20072;-78
2023/03/31 09:42:27;;;;;;;10.02;3.17;;;;;;;11.67;100.00;99371.69;6189726;23;20024;-78
2023/03/31 09:44:54;;;;;;;12.55;2.75;;;;;;;11.61;100.00;99378.22;6190037;23;20347;-77
2023/03/31 09:47:30;;;;;;;10.55;3.55;;;;;;;11.56;100.00;99373.63;6189572;23;20025;-79
2023/03/31 09:49:57;;;;;;;12.73;3.03;;;;;;;11.63;100.00;99375.78;6190180;23;20013;-80
2023/03/31 09:52:30;;;;;;;11.90;3.33;;;;;;;11.73;100.00;99379.00;6189325;23;20024;-80
2023/03/31 09:55:01;;;;;;;10.98;3.40;;;;;;;11.72;100.00;99369.53;6189500;23;20451;-78
2023/03/31 09:57:38;;;;;;;11.73;3.35;;;;;;;11.72;100.00;99372.94;6191037;23;20017;-77
2023/03/31 10:00:12;;;;;;;15.95;3.17;;;;;;;11.92;100.00;99364.06;6189826;23;20443;-76
2023/03/31 10:02:47;;;;;;;10.40;2.65;;;;;;;11.96;100.00;99367.97;6189960;23;20025;-77
2023/03/31 10:05:39;;;;;;;13.90;2.97;;;;;;;12.07;100.00;99369.91;6189481;23;20088;-77
2023/03/31 10:08:15;;;;;;;13.93;3.17;;;;;;;12.21;100.00;99366.28;6189351;23;20105;-77
2023/03/31 10:11:05;;;;;;;11.43;2.60;;;;;;;12.19;99.74;99371.38;6190107;23;20018;-78
2023/03/31 10:13:49;;;;;;;11.80;2.92;;;;;;;12.28;99.61;99362.44;6176023;23;20356;-77
2023/03/31 10:16:48;;;;;;;10.52;2.85;;;;;;;12.45;98.09;99357.09;6189820;23;20096;-78
2023/03/31 10:19:31;;;;;;;10.63;2.88;;;;;;;12.57;98.20;99342.53;6179910;23;20032;-76
2023/03/31 10:22:11;;;;;;;15.05;2.80;;;;;;;12.69;96.12;99352.00;6189226;23;20017;-77
2023/03/31 10:24:42;;;;;;;9.57;2.80;;;;;;;12.76;94.81;99332.09;6190299;23;20064;-77
2023/03/31 10:27:30;;;;;;;10.88;2.50;;;;;;;12.92;93.57;99337.38;6189601;23;20028;-78
2023/03/31 10:29:59;;;;;;;10.40;2.50;;;;;;;12.99;91.97;99342.25;6190697;23;20029;-79
2023/03/31 10:32:31;;;;;;;13.25;3.00;;;;;;;12.96;90.87;99339.81;6189778;23;20040;-78
2023/03/31 10:35:05;;;;;;;9.77;2.67;;;;;;;12.92;90.98;99337.38;6190012;23;20025;-77
2023/03/31 10:37:35;;;;;;;9.95;2.30;;;;;;;12.94;90.67;99329.63;6188748;23;20013;-78
2023/03/31 10:40:11;;;;;;;12.30;3.20;;;;;;;13.09;90.68;99332.03;6189847;23;20516;-78
2023/03/31 10:42:38;;;;;;;11.13;2.67;;;;;;;13.21;89.02;99330.06;6189734;23;20076;-79
2023/03/31 10:45:26;;;;;;;8.10;2.40;;;;;;;13.14;88.37;99325.22;6189969;23;20041;-79
2023/03/31 10:48:05;;;;;;;7.85;2.53;;;;;;;13.12;87.45;99316.97;6191111;23;20525;-76
2023/03/31 10:50:35;;;;;;;7.53;3.25;;;;;;;13.02;87.67;99316.50;6188837;23;20451;-77
2023/03/31 10:53:10;;;;;;;7.97;2.40;;;;;;;12.93;86.72;99319.41;6189874;23;20013;-78
2023/03/31 10:55:55;;;;;;;8.98;2.85;;;;;;;12.89;87.33;99316.28;6190019;23;20021;-77
2023/03/31 10:58:25;;;;;;;8.88;2.38;;;;;;;12.80;86.49;99319.94;6190248;23;20013;-78
2023/03/31 11:01:08;;;;;;;8.80;2.63;;;;;;;12.75;87.70;99318.00;6191136;23;20018;-78
2023/03/31 11:03:44;;;;;;;9.95;2.50;;;;;;;12.80;88.45;99311.19;6189826;23;20018;-79
2023/03/31 11:06:38;;;;;;;12.02;2.40;;;;;;;12.89;88.21;99313.59;6188481;23;20021;-78
2023/03/31 11:09:32;;;;;;;10.35;2.25;;;;;;;12.81;88.12;99320.66;6188701;23;20055;-79
2023/03/31 11:12:15;;;;;;;7.55;2.15;;;;;;;12.76;88.62;99316.81;6135219;23;20505;-79
2023/03/31 11:15:11;;;;;;;8.05;2.50;;;;;;;12.65;89.20;99308.81;6190261;23;20052;-79
2023/03/31 11:17:58;;;;;;;11.20;2.70;;;;;;;12.77;90.28;99312.91;6195246;23;20025;-80
2023/03/31 11:20:39;;;;;;;8.52;2.20;;;;;;;12.78;89.44;99309.03;6161887;23;20017;-79
2023/03/31 11:23:31;;;;;;;9.73;2.03;;;;;;;12.76;89.26;99313.41;6189471;23;20018;-78
2023/03/31 11:26:06;;;;;;;6.93;2.50;;;;;;;12.73;89.64;99309.75;6189374;23;20021;-79
2023/03/31 11:28:46;;;;;;;7.40;2.17;;;;;;;12.72;89.04;99297.63;6189425;23;20022;-79
2023/03/31 11:31:30;;;;;;;8.23;2.38;;;;;;;12.58;88.96;99295.94;6189226;23;20199;-77
2023/03/31 11:34:18;;;;;;;8.48;2.05;;;;;;;12.52;89.76;99303.94;6188624;23;20022;-77
2023/03/31 11:37:12;;;;;;;7.65;2.20;;;;;;;12.60;90.11;99293.50;6189616;23;20064;-78
2023/03/31 11:39:59;;;;;;;6.07;2.08;;;;;;;12.64;89.00;99289.38;6189629;23;20077;-78
2023/03/31 11:42:34;;;;;;;10.55;2.25;;;;;;;12.71;89.51;99288.16;6188638;23;20467;-77
2023/03/31 11:45:14;;;;;;;8.10;2.17;;;;;;;12.82;89.63;99288.13;6189646;23;20080;-78
2023/03/31 11:47:45;;;;;;;8.85;2.03;;;;;;;12.81;88.19;99299.28;6189384;23;20017;-77
2023/03/31 11:50:18;;;;;;;8.05;2.25;;;;;;;12.79;89.34;99315.09;6189339;23;20093;-77
2023/03/31 11:52:55;;;;;;;13.70;2.42;;;;;;;12.64;89.06;99308.06;6163182;23;20100;-79
2023/03/31 11:55:26;;;;;;;8.80;1.80;;;;;;;12.48;89.24;99300.78;6162866;23;20018;-77